createdAt,value
2022-08-03T00:02:35.816Z,63.05
2022-08-03T00:05:38.618Z,63.10
2022-08-03T00:08:43.146Z,63.08
2022-08-03T00:11:46.177Z,63.14
2022-08-03T00:14:49.545Z,63.61
2022-08-03T00:17:54.105Z,63.49
2022-08-03T00:20:57.659Z,63.71
2022-08-03T00:24:02.151Z,63.72
2022-08-03T00:27:05.043Z,64.07
2022-08-03T00:30:09.041Z,64.07
2022-08-03T00:33:12.105Z,64.31
2022-08-03T00:36:16.604Z,64.54
2022-08-03T00:39:20.869Z,64.64
2022-08-03T00:42:23.566Z,64.56
2022-08-03T00:45:34.199Z,64.82
2022-08-03T00:48:36.983Z,64.95
2022-08-03T00:51:39.827Z,65.07
2022-08-03T00:54:44.209Z,64.99
2022-08-03T00:57:47.907Z,65.26
2022-08-03T01:00:51.217Z,65.52
2022-08-03T01:03:54.017Z,65.79
2022-08-03T01:07:04.544Z,65.85
2022-08-03T01:10:23.016Z,66.01
2022-08-03T01:13:30.761Z,66.14
2022-08-03T01:17:00.540Z,66.35
2022-08-03T01:20:07.880Z,66.56
2022-08-03T01:23:36.243Z,66.37
2022-08-03T01:27:05.055Z,66.33
2022-08-03T01:30:12.123Z,66.91
2022-08-03T01:33:19.913Z,67.02
2022-08-03T01:36:26.140Z,67.10
2022-08-03T01:39:31.751Z,67.31
2022-08-03T01:42:37.624Z,67.57
2022-08-03T01:45:43.162Z,67.25
2022-08-03T01:48:49.010Z,67.28
2022-08-03T01:52:03.210Z,67.32
2022-08-03T01:55:09.627Z,67.40
2022-08-03T01:58:15.446Z,67.58
2022-08-03T02:01:21.756Z,67.71
2022-08-03T02:04:26.626Z,67.81
2022-08-03T02:07:31.476Z,67.81
2022-08-03T02:10:36.329Z,67.97
2022-08-03T02:13:40.579Z,68.12
2022-08-03T02:16:46.449Z,68.11
2022-08-03T02:19:52.299Z,68.59
2022-08-03T02:22:55.602Z,68.55
2022-08-03T02:26:02.094Z,68.67
2022-08-03T02:29:12.447Z,68.56
2022-08-03T02:32:22.089Z,68.40
2022-08-03T02:35:29.717Z,68.75
2022-08-03T02:38:35.397Z,68.67
2022-08-03T02:41:44.606Z,68.97
2022-08-03T02:44:51.088Z,68.95
2022-08-03T02:47:59.653Z,69.26
2022-08-03T02:51:04.928Z,69.08
2022-08-03T02:54:10.414Z,69.25
2022-08-03T02:57:15.373Z,69.78
2022-08-03T03:00:27.253Z,69.95
2022-08-03T03:03:35.272Z,70.00
2022-08-03T03:06:43.964Z,70.35
2022-08-03T03:09:50.618Z,70.80
2022-08-03T03:12:57.266Z,70.64
2022-08-03T03:16:01.864Z,71.06
2022-08-03T03:19:06.480Z,71.08
2022-08-03T03:22:10.170Z,71.23
2022-08-03T03:25:13.244Z,71.18
2022-08-03T03:28:16.490Z,71.12
2022-08-03T03:31:19.270Z,71.13
2022-08-03T03:34:23.929Z,71.18
2022-08-03T03:37:28.195Z,71.07
2022-08-03T03:40:31.369Z,71.24
2022-08-03T03:43:34.897Z,71.14
2022-08-03T03:46:38.761Z,71.33
2022-08-03T03:49:43.214Z,71.41
2022-08-03T03:52:46.153Z,71.22
2022-08-03T03:56:02.349Z,71.31
2022-08-03T03:59:05.738Z,71.52
2022-08-03T04:02:10.107Z,71.42
2022-08-03T04:05:32.043Z,71.66
2022-08-03T04:08:52.409Z,71.50
2022-08-03T04:11:59.736Z,72.18
2022-08-03T04:15:04.837Z,72.67
2022-08-03T04:18:10.373Z,72.79
2022-08-03T04:21:16.214Z,72.99
2022-08-03T04:24:21.893Z,73.64
2022-08-03T04:27:34.419Z,73.59
2022-08-03T04:30:47.527Z,73.82
2022-08-03T04:33:52.721Z,73.96
2022-08-03T04:37:01.399Z,73.64
2022-08-03T04:40:09.845Z,74.04
2022-08-03T04:43:16.412Z,74.38
2022-08-03T04:46:20.706Z,74.18
2022-08-03T04:49:24.166Z,74.18
2022-08-03T04:52:28.663Z,74.33
2022-08-03T04:55:33.301Z,74.37
2022-08-03T04:58:36.658Z,74.26
2022-08-03T05:01:40.889Z,74.05
2022-08-03T05:04:46.497Z,73.17
2022-08-03T05:07:51.081Z,72.98
2022-08-03T05:10:53.807Z,73.04
2022-08-03T05:13:56.683Z,72.77
2022-08-03T05:16:59.453Z,71.77
2022-08-03T05:20:03.960Z,69.39
2022-08-03T05:23:08.052Z,68.55
2022-08-03T05:26:11.791Z,68.73
2022-08-03T05:29:14.484Z,69.79
2022-08-03T05:32:18.071Z,70.35
2022-08-03T05:36:01.805Z,71.03
2022-08-03T05:38:45.131Z,71.29
2022-08-03T05:41:48.112Z,71.28
2022-08-03T05:44:51.172Z,71.30
2022-08-03T05:47:54.232Z,71.22
2022-08-03T05:50:56.946Z,69.11
2022-08-03T05:54:01.002Z,64.00
2022-08-03T05:57:03.737Z,60.81
2022-08-03T06:00:08.920Z,57.87
2022-08-03T06:03:12.811Z,56.28
2022-08-03T06:06:15.858Z,54.78
2022-08-03T06:09:20.046Z,53.77
2022-08-03T06:12:22.777Z,52.63
2022-08-03T06:15:25.710Z,51.51
2022-08-03T06:18:36.223Z,51.05
2022-08-03T06:21:41.728Z,50.57
2022-08-03T06:24:53.589Z,50.02
2022-08-03T06:27:57.870Z,48.95
2022-08-03T06:31:04.370Z,48.88
2022-08-03T06:34:33.268Z,47.81
2022-08-03T06:37:33.806Z,47.77
2022-08-03T06:40:40.185Z,48.31
2022-08-03T06:44:03.904Z,48.33
2022-08-03T06:47:07.308Z,48.01
2022-08-03T06:50:12.730Z,47.64
2022-08-03T06:53:21.502Z,47.86
2022-08-03T06:56:25.851Z,47.89
2022-08-03T07:00:09.499Z,47.74
2022-08-03T07:02:56.140Z,47.76
2022-08-03T07:06:00.839Z,47.30
2022-08-03T07:09:03.971Z,46.90
2022-08-03T07:12:08.595Z,46.70
2022-08-03T07:15:20.559Z,46.82
2022-08-03T07:18:35.296Z,46.50
2022-08-03T07:21:38.010Z,46.38
2022-08-03T07:24:41.919Z,46.60
2022-08-03T07:27:51.400Z,46.09
2022-08-03T07:30:54.885Z,45.55
2022-08-03T07:33:57.636Z,45.56
2022-08-03T07:37:00.859Z,45.49
2022-08-03T07:40:05.223Z,45.23
2022-08-03T07:43:09.480Z,45.06
2022-08-03T07:46:12.453Z,44.92
2022-08-03T07:49:15.445Z,44.89
2022-08-03T07:52:36.340Z,44.58
2022-08-03T07:55:39.669Z,44.41
2022-08-03T07:58:43.896Z,43.89
2022-08-03T08:01:46.625Z,43.90
2022-08-03T08:04:49.589Z,43.35
2022-08-03T08:07:52.444Z,42.71
2022-08-03T08:10:58.013Z,41.64
2022-08-03T08:14:03.893Z,42.10
2022-08-03T08:17:07.482Z,42.59
2022-08-03T08:20:11.753Z,44.16
2022-08-03T08:23:42.799Z,45.21
2022-08-03T08:26:37.815Z,46.61
2022-08-03T08:29:47.630Z,46.21
2022-08-03T08:32:55.983Z,46.04
2022-08-03T08:35:58.731Z,44.09
2022-08-03T08:39:01.493Z,43.32
2022-08-03T08:42:04.515Z,44.51
2022-08-03T08:45:10.041Z,42.41
2022-08-03T08:48:14.910Z,42.84
2022-08-03T08:51:19.561Z,43.00
2022-08-03T08:54:23.495Z,41.89
2022-08-03T08:57:42.844Z,42.09
2022-08-03T09:00:48.494Z,42.22
2022-08-03T09:03:51.900Z,41.70
2022-08-03T09:07:18.810Z,41.16
2022-08-03T09:10:22.002Z,40.39
2022-08-03T09:13:24.834Z,39.76
2022-08-03T09:16:29.096Z,40.15
2022-08-03T09:19:33.805Z,40.19
2022-08-03T09:22:37.030Z,39.98
2022-08-03T09:25:42.296Z,40.02
2022-08-03T09:29:00.661Z,40.07
2022-08-03T09:32:08.938Z,39.39
2022-08-03T09:35:12.827Z,39.55
2022-08-03T09:38:18.103Z,39.12
2022-08-03T09:41:20.921Z,38.72
2022-08-03T09:44:35.844Z,38.80
2022-08-03T09:47:45.005Z,38.23
2022-08-03T09:50:58.421Z,38.29
2022-08-03T09:54:20.301Z,37.46
2022-08-03T09:57:24.189Z,37.32
2022-08-03T10:00:27.079Z,36.94
2022-08-03T10:03:35.042Z,37.47
2022-08-03T10:06:37.973Z,36.69
2022-08-03T10:09:54.658Z,36.44
2022-08-03T10:12:57.850Z,35.91
2022-08-03T10:16:21.277Z,35.90
2022-08-03T10:19:25.672Z,35.83
2022-08-03T10:22:30.801Z,35.60
2022-08-03T10:25:35.825Z,35.54
2022-08-03T10:28:45.517Z,35.15
2022-08-03T10:31:57.568Z,35.43
2022-08-03T10:35:19.095Z,35.74
2022-08-03T10:38:30.403Z,35.48
2022-08-03T10:41:37.353Z,34.99
2022-08-03T10:44:42.099Z,35.24
2022-08-03T10:47:45.753Z,34.91
2022-08-03T10:50:51.609Z,34.31
2022-08-03T10:53:55.701Z,34.30
2022-08-03T10:57:16.456Z,34.02
2022-08-03T11:00:22.337Z,34.22
2022-08-03T11:03:25.106Z,34.02
2022-08-03T11:06:37.562Z,33.04
2022-08-03T11:09:43.333Z,33.82
2022-08-03T11:12:47.336Z,33.51
2022-08-03T11:16:01.610Z,33.74
2022-08-03T11:19:07.245Z,32.81
2022-08-03T11:22:12.316Z,33.18
2022-08-03T11:25:53.598Z,33.16
2022-08-03T11:28:40.879Z,33.42
2022-08-03T11:31:50.324Z,32.93
2022-08-03T11:35:09.102Z,32.87
2022-08-03T11:38:13.470Z,32.80
2022-08-03T11:41:34.275Z,32.31
2022-08-03T11:44:47.897Z,32.10
2022-08-03T11:47:54.887Z,31.94
2022-08-03T11:50:58.558Z,31.92
2022-08-03T11:54:05.322Z,31.80
2022-08-03T11:57:08.253Z,31.91
2022-08-03T12:00:22.745Z,31.99
2022-08-03T12:03:25.500Z,31.57
2022-08-03T12:06:28.332Z,31.49
2022-08-03T12:09:36.336Z,31.71
2022-08-03T12:12:44.506Z,31.37
2022-08-03T12:15:53.501Z,31.17
2022-08-03T12:19:01.541Z,31.27
2022-08-03T12:22:04.456Z,31.49
2022-08-03T12:25:10.837Z,31.63
2022-08-03T12:28:35.977Z,31.31
2022-08-03T12:31:41.049Z,31.30
2022-08-03T12:34:47.836Z,31.25
2022-08-03T12:37:50.779Z,30.59
2022-08-03T12:41:14.647Z,30.74
2022-08-03T12:44:17.430Z,30.46
2022-08-03T12:47:20.400Z,30.19
2022-08-03T12:50:28.668Z,30.31
2022-08-03T12:53:39.016Z,30.36
2022-08-03T12:57:01.586Z,30.24
2022-08-03T13:00:13.059Z,30.48
2022-08-03T13:03:38.975Z,30.03
2022-08-03T13:06:42.948Z,29.59
2022-08-03T13:09:47.973Z,29.86
2022-08-03T13:12:52.760Z,30.26
2022-08-03T13:15:55.480Z,29.80
2022-08-03T13:18:58.189Z,29.54
2022-08-03T13:22:04.329Z,29.42
2022-08-03T13:25:08.866Z,29.36
2022-08-03T13:28:14.440Z,28.88
2022-08-03T13:31:17.487Z,28.89
2022-08-03T13:34:23.892Z,29.24
2022-08-03T13:37:27.257Z,29.05
2022-08-03T13:41:05.278Z,28.58
2022-08-03T13:44:32.616Z,28.96
2022-08-03T13:48:16.822Z,28.91
2022-08-03T13:51:54.636Z,28.72
2022-08-03T13:54:57.818Z,28.82
2022-08-03T13:58:11.928Z,28.79
2022-08-03T14:01:16.381Z,28.68
2022-08-03T14:04:21.839Z,28.48
2022-08-03T14:07:25.306Z,28.49
2022-08-03T14:10:28.020Z,28.77
2022-08-03T14:13:30.743Z,28.98
2022-08-03T14:16:34.877Z,29.16
2022-08-03T14:19:44.896Z,28.23
2022-08-03T14:22:57.021Z,28.06
2022-08-03T14:25:59.767Z,28.24
2022-08-03T14:29:02.883Z,28.08
2022-08-03T14:32:11.664Z,28.17
2022-08-03T14:35:15.595Z,28.31
2022-08-03T14:38:19.221Z,28.52
2022-08-03T14:41:22.076Z,27.91
2022-08-03T14:44:24.793Z,27.21
2022-08-03T14:47:28.885Z,27.81
2022-08-03T14:50:41.960Z,28.19
2022-08-03T14:53:46.663Z,28.26
2022-08-03T14:56:49.373Z,27.84
2022-08-03T14:59:55.538Z,27.85
2022-08-03T15:03:01.989Z,28.12
2022-08-03T15:06:05.039Z,27.91
2022-08-03T15:09:21.106Z,27.61
2022-08-03T15:12:26.098Z,27.51
2022-08-03T15:15:29.306Z,27.29
2022-08-03T15:18:33.747Z,27.17
2022-08-03T15:21:46.545Z,27.41
2022-08-03T15:24:50.829Z,27.72
2022-08-03T15:28:04.035Z,27.99
2022-08-03T15:31:08.134Z,27.76
2022-08-03T15:34:13.083Z,27.34
2022-08-03T15:37:16.720Z,27.43
2022-08-03T15:40:22.645Z,27.88
2022-08-03T15:43:31.912Z,27.31
2022-08-03T15:46:38.923Z,27.35
2022-08-03T15:49:49.990Z,27.28
2022-08-03T15:52:56.026Z,27.33
2022-08-03T15:56:11.409Z,27.46
2022-08-03T15:59:17.272Z,27.99
2022-08-03T16:02:20.309Z,27.74
2022-08-03T16:05:24.556Z,27.94
2022-08-03T16:08:27.427Z,28.09
2022-08-03T16:11:30.631Z,28.01
2022-08-03T16:14:42.198Z,28.80
2022-08-03T16:17:53.746Z,29.06
2022-08-03T16:20:58.189Z,29.16
2022-08-03T16:24:02.125Z,29.42
2022-08-03T16:27:17.467Z,29.34
2022-08-03T16:30:31.320Z,29.87
2022-08-03T16:33:36.120Z,30.26
2022-08-03T16:36:40.387Z,31.31
2022-08-03T16:39:43.101Z,31.58
2022-08-03T16:42:45.846Z,30.74
2022-08-03T16:45:49.282Z,30.54
2022-08-03T16:48:52.397Z,31.40
2022-08-03T16:51:56.614Z,31.86
2022-08-03T16:55:02.205Z,32.42
2022-08-03T16:58:07.472Z,31.75
2022-08-03T17:01:22.377Z,31.42
2022-08-03T17:04:28.360Z,31.90
2022-08-03T17:07:33.275Z,32.68
2022-08-03T17:10:35.952Z,32.01
2022-08-03T17:13:40.323Z,31.67
2022-08-03T17:16:52.571Z,32.48
2022-08-03T17:19:58.633Z,33.63
2022-08-03T17:23:19.202Z,33.53
2022-08-03T17:26:38.443Z,33.67
2022-08-03T17:29:48.402Z,33.33
2022-08-03T17:32:52.659Z,33.48
2022-08-03T17:36:01.829Z,33.27
2022-08-03T17:39:06.953Z,34.01
2022-08-03T17:42:31.217Z,34.21
2022-08-03T17:45:42.301Z,34.66
2022-08-03T17:48:58.908Z,34.35
2022-08-03T17:52:04.036Z,34.96
2022-08-03T17:55:55.229Z,35.34
2022-08-03T17:58:53.534Z,36.09
2022-08-03T18:02:29.777Z,36.88
2022-08-03T18:06:11.718Z,37.19
2022-08-03T18:09:05.074Z,37.54
2022-08-03T18:12:29.445Z,37.57
2022-08-03T18:15:38.738Z,37.77
2022-08-03T18:18:44.049Z,38.26
2022-08-03T18:22:02.920Z,39.38
2022-08-03T18:25:09.300Z,40.78
2022-08-03T18:28:18.875Z,41.15
2022-08-03T18:32:00.267Z,40.71
2022-08-03T18:34:53.674Z,40.66
2022-08-03T18:37:59.108Z,41.25
2022-08-03T18:41:12.712Z,41.73
2022-08-03T18:44:53.410Z,42.05
2022-08-03T18:48:05.102Z,42.34
2022-08-03T18:51:11.964Z,42.71
2022-08-03T18:54:59.037Z,43.06
2022-08-03T18:58:18.197Z,43.21
2022-08-03T19:02:00.639Z,43.44
2022-08-03T19:04:55.453Z,43.77
2022-08-03T19:08:06.164Z,43.94
2022-08-03T19:11:28.243Z,44.53
2022-08-03T19:14:41.636Z,45.88
2022-08-03T19:17:50.264Z,46.47
2022-08-03T19:20:58.043Z,47.07
2022-08-03T19:27:27.286Z,47.11
2022-08-03T19:30:38.724Z,47.24
2022-08-03T19:33:57.472Z,47.12
2022-08-03T19:37:01.590Z,47.54
2022-08-03T19:40:06.072Z,47.84
2022-08-03T19:43:21.581Z,47.80
2022-08-03T19:46:27.635Z,48.02
2022-08-03T19:50:06.167Z,48.72
2022-08-03T19:53:04.792Z,48.58
2022-08-03T19:56:11.187Z,48.54
2022-08-03T19:59:14.836Z,48.45
2022-08-03T20:02:27.212Z,48.43
2022-08-03T20:05:45.100Z,48.41
2022-08-03T20:08:54.939Z,49.08
2022-08-03T20:11:57.877Z,50.23
2022-08-03T20:15:01.411Z,50.65
2022-08-03T20:18:04.575Z,51.19
2022-08-03T20:21:14.814Z,51.30
2022-08-03T20:24:24.355Z,51.05
2022-08-03T20:27:30.282Z,50.99
2022-08-03T20:30:34.195Z,51.23
2022-08-03T20:33:46.293Z,52.07
2022-08-03T20:36:53.110Z,53.30
2022-08-03T20:39:55.872Z,54.21
2022-08-03T20:42:59.782Z,53.67
2022-08-03T20:49:27.864Z,52.60
2022-08-03T20:52:32.772Z,52.34
2022-08-03T20:55:47.783Z,52.33
2022-08-03T20:58:59.273Z,52.68
2022-08-03T21:02:03.569Z,52.84
2022-08-03T21:05:09.217Z,52.98
2022-08-03T21:08:15.892Z,53.02
2022-08-03T21:11:20.159Z,53.07
2022-08-03T21:13:09.132Z,47.24
2022-08-03T21:13:13.491Z,53.07
2022-08-03T21:14:28.911Z,53.18
2022-08-03T21:17:42.003Z,53.54
2022-08-03T21:20:47.692Z,53.96
2022-08-03T21:23:53.208Z,54.53
2022-08-03T21:26:56.041Z,54.52
2022-08-03T21:29:59.870Z,54.42
2022-08-03T21:33:02.716Z,54.44
2022-08-03T21:36:06.706Z,54.43
2022-08-03T21:39:12.158Z,54.42
2022-08-03T21:42:15.548Z,54.47
2022-08-03T21:45:18.439Z,54.57
2022-08-03T21:48:25.228Z,54.75
2022-08-03T21:51:31.235Z,54.83
2022-08-03T21:54:38.838Z,55.34
2022-08-03T21:57:46.172Z,55.77
2022-08-03T22:00:49.104Z,56.05
2022-08-03T22:03:54.273Z,56.10
2022-08-03T22:06:57.867Z,56.29
2022-08-03T22:10:04.700Z,56.24
2022-08-03T22:13:07.533Z,56.48
2022-08-03T22:16:10.697Z,56.32
2022-08-03T22:19:13.556Z,56.53
2022-08-03T22:22:18.953Z,56.55
2022-08-03T22:25:29.463Z,57.12
2022-08-03T22:28:33.210Z,58.04
2022-08-03T22:31:58.068Z,59.16
2022-08-03T22:35:01.020Z,61.19
2022-08-03T22:38:07.908Z,62.21
2022-08-03T22:41:12.151Z,63.29
2022-08-03T22:44:14.982Z,63.84
2022-08-03T22:47:22.439Z,65.40
2022-08-03T22:50:31.968Z,65.33
2022-08-03T22:53:37.256Z,64.44
2022-08-03T22:56:41.904Z,63.36
2022-08-03T22:59:47.317Z,62.51
2022-08-03T23:02:52.071Z,61.90
2022-08-03T23:06:02.022Z,62.01
2022-08-03T23:09:09.536Z,61.73
2022-08-03T23:12:16.272Z,61.96
2022-08-03T23:15:19.610Z,62.01
2022-08-03T23:18:23.553Z,62.16
2022-08-03T23:21:53.705Z,63.31
2022-08-03T23:24:50.961Z,63.86
2022-08-03T23:28:05.421Z,64.21
2022-08-03T23:31:10.077Z,64.02
2022-08-03T23:34:33.044Z,63.64
2022-08-03T23:38:04.739Z,63.39
2022-08-03T23:41:00.545Z,63.03
2022-08-03T23:44:05.565Z,62.83
2022-08-03T23:47:08.297Z,62.75
2022-08-03T23:50:11.005Z,62.73
2022-08-03T23:53:19.364Z,62.49
2022-08-03T23:56:28.761Z,62.45
2022-08-03T23:59:41.609Z,62.52
